ΕΜΥ, Εθνική Μετεωρολογική Υπηρεσία - Δελτία Καιρού, Προγνώσεις

ΑΕΡΟΝΑΥΤΙΛΙΑ

GREEK AIRPORTS CODES

LGAT 221400Z AUTO 24004KT 010V350 //// // ////// 26/12 Q1019 RE//=

EUROPEAN AIRPORTS CODES

LFPO 221400Z 18005KT 150V210 9999 -RA FEW009 OVC090 16/15Q1009 TEMPO 1500 RA BKN008=